sensor_id;sensor_type;location;lat;lon;timestamp;temperature;humidity
69503;SHT31;56704;54.242;12.442;2023-04-19T00:00:10;6.07;68.73
69503;SHT31;56704;54.242;12.442;2023-04-19T00:02:38;6.03;68.75
69503;SHT31;56704;54.242;12.442;2023-04-19T00:05:06;6.05;68.70
69503;SHT31;56704;54.242;12.442;2023-04-19T00:07:33;6.11;68.28
69503;SHT31;56704;54.242;12.442;2023-04-19T00:10:00;6.14;68.18
69503;SHT31;56704;54.242;12.442;2023-04-19T00:12:27;6.11;68.57
69503;SHT31;56704;54.242;12.442;2023-04-19T00:14:54;6.11;67.79
69503;SHT31;56704;54.242;12.442;2023-04-19T00:17:22;6.11;67.97
69503;SHT31;56704;54.242;12.442;2023-04-19T00:19:48;6.17;67.97
69503;SHT31;56704;54.242;12.442;2023-04-19T00:22:15;6.20;68.15
69503;SHT31;56704;54.242;12.442;2023-04-19T00:24:41;6.20;68.56
69503;SHT31;56704;54.242;12.442;2023-04-19T00:27:08;6.24;68.88
69503;SHT31;56704;54.242;12.442;2023-04-19T00:29:35;6.26;69.14
69503;SHT31;56704;54.242;12.442;2023-04-19T00:32:01;6.30;69.81
69503;SHT31;56704;54.242;12.442;2023-04-19T00:34:31;6.29;70.02
69503;SHT31;56704;54.242;12.442;2023-04-19T00:36:58;6.21;71.24
69503;SHT31;56704;54.242;12.442;2023-04-19T00:39:24;6.27;71.29
69503;SHT31;56704;54.242;12.442;2023-04-19T00:41:51;6.29;71.28
69503;SHT31;56704;54.242;12.442;2023-04-19T00:44:18;6.23;71.67
69503;SHT31;56704;54.242;12.442;2023-04-19T00:46:44;6.26;72.48
69503;SHT31;56704;54.242;12.442;2023-04-19T00:49:11;6.26;72.64
69503;SHT31;56704;54.242;12.442;2023-04-19T00:51:39;6.29;73.14
69503;SHT31;56704;54.242;12.442;2023-04-19T00:54:06;6.24;73.90
69503;SHT31;56704;54.242;12.442;2023-04-19T00:56:34;6.24;73.82
69503;SHT31;56704;54.242;12.442;2023-04-19T00:59:01;6.26;73.77
69503;SHT31;56704;54.242;12.442;2023-04-19T01:01:27;6.21;74.22
69503;SHT31;56704;54.242;12.442;2023-04-19T01:03:54;6.20;74.46
69503;SHT31;56704;54.242;12.442;2023-04-19T01:06:21;6.21;74.00
69503;SHT31;56704;54.242;12.442;2023-04-19T01:08:49;6.24;74.40
69503;SHT31;56704;54.242;12.442;2023-04-19T01:11:15;6.19;74.95
69503;SHT31;56704;54.242;12.442;2023-04-19T01:13:42;6.19;75.00
69503;SHT31;56704;54.242;12.442;2023-04-19T01:16:08;6.23;75.19
69503;SHT31;56704;54.242;12.442;2023-04-19T01:18:35;6.21;74.91
69503;SHT31;56704;54.242;12.442;2023-04-19T01:21:05;6.23;74.60
69503;SHT31;56704;54.242;12.442;2023-04-19T01:23:34;6.20;74.45
69503;SHT31;56704;54.242;12.442;2023-04-19T01:26:01;6.14;74.64
69503;SHT31;56704;54.242;12.442;2023-04-19T01:28:28;6.20;74.24
69503;SHT31;56704;54.242;12.442;2023-04-19T01:30:54;6.20;73.82
69503;SHT31;56704;54.242;12.442;2023-04-19T01:33:21;6.27;73.25
69503;SHT31;56704;54.242;12.442;2023-04-19T01:35:48;6.29;73.07
69503;SHT31;56704;54.242;12.442;2023-04-19T01:38:14;6.27;72.94
69503;SHT31;56704;54.242;12.442;2023-04-19T01:40:43;6.27;72.86
69503;SHT31;56704;54.242;12.442;2023-04-19T01:43:11;6.26;72.71
69503;SHT31;56704;54.242;12.442;2023-04-19T01:45:38;6.19;72.41
69503;SHT31;56704;54.242;12.442;2023-04-19T01:48:06;6.20;72.11
69503;SHT31;56704;54.242;12.442;2023-04-19T01:50:32;6.16;71.91
69503;SHT31;56704;54.242;12.442;2023-04-19T01:52:59;6.16;71.99
69503;SHT31;56704;54.242;12.442;2023-04-19T01:55:26;6.16;72.01
69503;SHT31;56704;54.242;12.442;2023-04-19T01:57:54;6.17;71.52
69503;SHT31;56704;54.242;12.442;2023-04-19T02:00:21;6.14;71.59
69503;SHT31;56704;54.242;12.442;2023-04-19T02:02:47;6.13;71.61
69503;SHT31;56704;54.242;12.442;2023-04-19T02:05:14;6.11;71.42
69503;SHT31;56704;54.242;12.442;2023-04-19T02:07:41;6.14;70.89
69503;SHT31;56704;54.242;12.442;2023-04-19T02:10:09;6.11;70.85
69503;SHT31;56704;54.242;12.442;2023-04-19T02:12:36;6.13;70.65
69503;SHT31;56704;54.242;12.442;2023-04-19T02:15:05;6.16;70.78
69503;SHT31;56704;54.242;12.442;2023-04-19T02:17:31;6.19;70.66
69503;SHT31;56704;54.242;12.442;2023-04-19T02:19:58;6.17;70.36
69503;SHT31;56704;54.242;12.442;2023-04-19T02:22:24;6.21;70.48
69503;SHT31;56704;54.242;12.442;2023-04-19T02:24:51;6.20;70.39
69503;SHT31;56704;54.242;12.442;2023-04-19T02:27:18;6.14;70.83
69503;SHT31;56704;54.242;12.442;2023-04-19T02:29:44;6.14;70.27
69503;SHT31;56704;54.242;12.442;2023-04-19T02:32:13;6.19;70.72
69503;SHT31;56704;54.242;12.442;2023-04-19T02:34:39;6.13;70.12
69503;SHT31;56704;54.242;12.442;2023-04-19T02:37:06;6.14;69.73
69503;SHT31;56704;54.242;12.442;2023-04-19T02:39:32;6.11;69.73
69503;SHT31;56704;54.242;12.442;2023-04-19T02:41:59;6.11;69.47
69503;SHT31;56704;54.242;12.442;2023-04-19T02:44:26;6.09;69.66
69503;SHT31;56704;54.242;12.442;2023-04-19T02:46:53;6.06;69.56
69503;SHT31;56704;54.242;12.442;2023-04-19T02:49:23;6.06;69.50
69503;SHT31;56704;54.242;12.442;2023-04-19T02:51:50;6.07;69.52
69503;SHT31;56704;54.242;12.442;2023-04-19T02:54:17;6.09;69.11
69503;SHT31;56704;54.242;12.442;2023-04-19T02:56:43;6.09;68.78
69503;SHT31;56704;54.242;12.442;2023-04-19T02:59:10;6.10;68.37
69503;SHT31;56704;54.242;12.442;2023-04-19T03:01:36;6.17;68.62
69503;SHT31;56704;54.242;12.442;2023-04-19T03:04:03;6.16;67.82
69503;SHT31;56704;54.242;12.442;2023-04-19T03:06:31;6.16;67.86
69503;SHT31;56704;54.242;12.442;2023-04-19T03:08:58;6.19;67.85
69503;SHT31;56704;54.242;12.442;2023-04-19T03:11:25;6.19;67.71
69503;SHT31;56704;54.242;12.442;2023-04-19T03:13:51;6.17;67.65
69503;SHT31;56704;54.242;12.442;2023-04-19T03:16:18;6.23;68.20
69503;SHT31;56704;54.242;12.442;2023-04-19T03:18:45;6.23;67.55
69503;SHT31;56704;54.242;12.442;2023-04-19T03:21:12;6.23;67.93
69503;SHT31;56704;54.242;12.442;2023-04-19T03:23:40;6.21;68.15
69503;SHT31;56704;54.242;12.442;2023-04-19T03:26:06;6.26;68.06
69503;SHT31;56704;54.242;12.442;2023-04-19T03:28:33;6.20;68.31
69503;SHT31;56704;54.242;12.442;2023-04-19T03:31:00;6.21;68.51
69503;SHT31;56704;54.242;12.442;2023-04-19T03:33:27;6.20;68.38
69503;SHT31;56704;54.242;12.442;2023-04-19T03:35:53;6.17;68.49
69503;SHT31;56704;54.242;12.442;2023-04-19T03:38:20;6.16;68.71
69503;SHT31;56704;54.242;12.442;2023-04-19T03:40:48;6.11;69.09
69503;SHT31;56704;54.242;12.442;2023-04-19T03:43:14;5.72;70.86
69503;SHT31;56704;54.242;12.442;2023-04-19T03:45:41;6.06;69.03
69503;SHT31;56704;54.242;12.442;2023-04-19T03:48:07;6.07;68.72
69503;SHT31;56704;54.242;12.442;2023-04-19T03:50:34;6.09;68.87
69503;SHT31;56704;54.242;12.442;2023-04-19T03:53:02;6.07;69.20
69503;SHT31;56704;54.242;12.442;2023-04-19T03:55:29;6.06;68.74
69503;SHT31;56704;54.242;12.442;2023-04-19T03:57:57;5.76;69.86
69503;SHT31;56704;54.242;12.442;2023-04-19T04:00:23;6.02;69.07
69503;SHT31;56704;54.242;12.442;2023-04-19T04:02:50;6.05;68.90
69503;SHT31;56704;54.242;12.442;2023-04-19T04:05:17;6.06;68.90
69503;SHT31;56704;54.242;12.442;2023-04-19T04:07:43;6.13;69.07
69503;SHT31;56704;54.242;12.442;2023-04-19T04:10:10;6.10;68.72
69503;SHT31;56704;54.242;12.442;2023-04-19T04:12:36;6.13;68.57
69503;SHT31;56704;54.242;12.442;2023-04-19T04:15:05;6.19;68.73
69503;SHT31;56704;54.242;12.442;2023-04-19T04:17:32;6.17;68.30
69503;SHT31;56704;54.242;12.442;2023-04-19T04:19:59;6.13;68.55
69503;SHT31;56704;54.242;12.442;2023-04-19T04:22:25;6.14;68.36
69503;SHT31;56704;54.242;12.442;2023-04-19T04:24:53;6.14;68.49
69503;SHT31;56704;54.242;12.442;2023-04-19T04:27:22;6.16;68.35
69503;SHT31;56704;54.242;12.442;2023-04-19T04:29:48;6.17;68.14
69503;SHT31;56704;54.242;12.442;2023-04-19T04:32:17;6.21;68.26
69503;SHT31;56704;54.242;12.442;2023-04-19T04:34:47;6.23;68.19
69503;SHT31;56704;54.242;12.442;2023-04-19T04:37:13;6.23;68.17
69503;SHT31;56704;54.242;12.442;2023-04-19T04:39:40;6.26;68.39
69503;SHT31;56704;54.242;12.442;2023-04-19T04:42:07;6.31;68.47
69503;SHT31;56704;54.242;12.442;2023-04-19T04:44:34;6.34;68.14
69503;SHT31;56704;54.242;12.442;2023-04-19T04:47:01;6.40;68.16
69503;SHT31;56704;54.242;12.442;2023-04-19T04:49:29;6.41;68.23
69503;SHT31;56704;54.242;12.442;2023-04-19T04:51:56;6.44;68.18
69503;SHT31;56704;54.242;12.442;2023-04-19T04:54:23;6.45;68.32
69503;SHT31;56704;54.242;12.442;2023-04-19T04:56:49;6.51;68.45
69503;SHT31;56704;54.242;12.442;2023-04-19T04:59:16;6.54;68.48
69503;SHT31;56704;54.242;12.442;2023-04-19T05:01:42;6.54;68.49
69503;SHT31;56704;54.242;12.442;2023-04-19T05:04:09;6.51;68.94
69503;SHT31;56704;54.242;12.442;2023-04-19T05:06:44;6.63;67.86
69503;SHT31;56704;54.242;12.442;2023-04-19T05:09:10;6.65;67.77
69503;SHT31;56704;54.242;12.442;2023-04-19T05:11:37;6.65;67.95
69503;SHT31;56704;54.242;12.442;2023-04-19T05:14:03;6.71;67.66
69503;SHT31;56704;54.242;12.442;2023-04-19T05:16:30;6.79;67.03
69503;SHT31;56704;54.242;12.442;2023-04-19T05:18:56;6.75;66.91
69503;SHT31;56704;54.242;12.442;2023-04-19T05:21:23;6.85;66.70
69503;SHT31;56704;54.242;12.442;2023-04-19T05:23:52;6.87;66.32
69503;SHT31;56704;54.242;12.442;2023-04-19T05:26:18;6.89;66.59
69503;SHT31;56704;54.242;12.442;2023-04-19T05:28:45;6.92;66.93
69503;SHT31;56704;54.242;12.442;2023-04-19T05:31:12;6.95;66.84
69503;SHT31;56704;54.242;12.442;2023-04-19T05:33:39;7.03;65.92
69503;SHT31;56704;54.242;12.442;2023-04-19T05:36:06;7.00;66.61
69503;SHT31;56704;54.242;12.442;2023-04-19T05:38:33;6.77;67.09
69503;SHT31;56704;54.242;12.442;2023-04-19T05:41:01;6.75;66.70
69503;SHT31;56704;54.242;12.442;2023-04-19T05:43:27;6.81;66.85
69503;SHT31;56704;54.242;12.442;2023-04-19T05:45:54;6.85;66.91
69503;SHT31;56704;54.242;12.442;2023-04-19T05:48:20;6.87;67.01
69503;SHT31;56704;54.242;12.442;2023-04-19T05:50:47;7.37;65.20
69503;SHT31;56704;54.242;12.442;2023-04-19T05:53:14;7.34;65.09
69503;SHT31;56704;54.242;12.442;2023-04-19T05:55:40;7.46;64.88
69503;SHT31;56704;54.242;12.442;2023-04-19T05:58:08;7.49;65.12
69503;SHT31;56704;54.242;12.442;2023-04-19T06:00:35;7.50;65.08
69503;SHT31;56704;54.242;12.442;2023-04-19T06:03:02;7.61;64.33
69503;SHT31;56704;54.242;12.442;2023-04-19T06:05:28;7.67;64.87
69503;SHT31;56704;54.242;12.442;2023-04-19T06:07:55;7.66;64.59
69503;SHT31;56704;54.242;12.442;2023-04-19T06:10:22;7.71;64.83
69503;SHT31;56704;54.242;12.442;2023-04-19T06:12:49;7.67;64.47
69503;SHT31;56704;54.242;12.442;2023-04-19T06:15:17;7.54;65.99
69503;SHT31;56704;54.242;12.442;2023-04-19T06:17:43;7.90;64.08
69503;SHT31;56704;54.242;12.442;2023-04-19T06:20:10;7.92;63.76
69503;SHT31;56704;54.242;12.442;2023-04-19T06:22:41;7.98;63.22
69503;SHT31;56704;54.242;12.442;2023-04-19T06:25:08;8.05;63.32
69503;SHT31;56704;54.242;12.442;2023-04-19T06:27:35;8.06;62.30
69503;SHT31;56704;54.242;12.442;2023-04-19T06:30:01;8.01;62.49
69503;SHT31;56704;54.242;12.442;2023-04-19T06:32:29;8.13;63.18
69503;SHT31;56704;54.242;12.442;2023-04-19T06:34:56;8.21;63.09
69503;SHT31;56704;54.242;12.442;2023-04-19T06:37:23;8.13;63.06
69503;SHT31;56704;54.242;12.442;2023-04-19T06:39:49;7.84;62.83
69503;SHT31;56704;54.242;12.442;2023-04-19T06:42:16;7.99;63.11
69503;SHT31;56704;54.242;12.442;2023-04-19T06:44:44;8.29;62.11
69503;SHT31;56704;54.242;12.442;2023-04-19T06:47:11;8.38;61.52
69503;SHT31;56704;54.242;12.442;2023-04-19T06:49:38;8.45;60.62
69503;SHT31;56704;54.242;12.442;2023-04-19T06:52:05;8.49;60.84
69503;SHT31;56704;54.242;12.442;2023-04-19T06:54:32;8.54;60.35
69503;SHT31;56704;54.242;12.442;2023-04-19T06:56:58;8.29;61.07
69503;SHT31;56704;54.242;12.442;2023-04-19T06:59:26;8.50;59.53
69503;SHT31;56704;54.242;12.442;2023-04-19T07:01:53;8.60;59.30
69503;SHT31;56704;54.242;12.442;2023-04-19T07:04:21;8.71;59.93
69503;SHT31;56704;54.242;12.442;2023-04-19T07:06:49;8.77;59.06
69503;SHT31;56704;54.242;12.442;2023-04-19T07:09:16;8.94;58.99
69503;SHT31;56704;54.242;12.442;2023-04-19T07:11:42;9.22;58.46
69503;SHT31;56704;54.242;12.442;2023-04-19T07:14:09;9.66;58.13
69503;SHT31;56704;54.242;12.442;2023-04-19T07:16:35;9.89;56.99
69503;SHT31;56704;54.242;12.442;2023-04-19T07:19:02;10.27;54.25
69503;SHT31;56704;54.242;12.442;2023-04-19T07:21:29;10.50;54.16
69503;SHT31;56704;54.242;12.442;2023-04-19T07:23:59;10.85;53.55
69503;SHT31;56704;54.242;12.442;2023-04-19T07:26:25;10.88;51.75
69503;SHT31;56704;54.242;12.442;2023-04-19T07:28:52;11.08;51.92
69503;SHT31;56704;54.242;12.442;2023-04-19T07:31:18;11.26;51.58
69503;SHT31;56704;54.242;12.442;2023-04-19T07:33:45;11.40;51.27
69503;SHT31;56704;54.242;12.442;2023-04-19T07:36:12;11.37;50.95
69503;SHT31;56704;54.242;12.442;2023-04-19T07:38:38;11.43;51.30
69503;SHT31;56704;54.242;12.442;2023-04-19T07:41:06;11.27;51.01
69503;SHT31;56704;54.242;12.442;2023-04-19T07:43:34;11.08;50.52
69503;SHT31;56704;54.242;12.442;2023-04-19T07:46:01;10.96;49.71
69503;SHT31;56704;54.242;12.442;2023-04-19T07:48:28;10.92;50.91
69503;SHT31;56704;54.242;12.442;2023-04-19T07:50:54;11.08;50.95
69503;SHT31;56704;54.242;12.442;2023-04-19T07:53:21;11.06;52.01
69503;SHT31;56704;54.242;12.442;2023-04-19T07:55:47;10.85;50.87
69503;SHT31;56704;54.242;12.442;2023-04-19T07:58:15;10.88;51.77
69503;SHT31;56704;54.242;12.442;2023-04-19T08:00:42;10.88;51.16
69503;SHT31;56704;54.242;12.442;2023-04-19T08:03:08;10.96;51.04
69503;SHT31;56704;54.242;12.442;2023-04-19T08:05:35;11.09;51.50
69503;SHT31;56704;54.242;12.442;2023-04-19T08:08:01;11.16;50.59
69503;SHT31;56704;54.242;12.442;2023-04-19T08:10:29;11.10;50.81
69503;SHT31;56704;54.242;12.442;2023-04-19T08:12:56;11.02;50.93
69503;SHT31;56704;54.242;12.442;2023-04-19T08:15:24;11.08;51.25
69503;SHT31;56704;54.242;12.442;2023-04-19T08:17:51;11.24;51.09
69503;SHT31;56704;54.242;12.442;2023-04-19T08:20:17;11.47;50.79
69503;SHT31;56704;54.242;12.442;2023-04-19T08:22:46;11.43;50.06
69503;SHT31;56704;54.242;12.442;2023-04-19T08:25:12;11.33;50.18
69503;SHT31;56704;54.242;12.442;2023-04-19T08:27:39;11.39;50.89
69503;SHT31;56704;54.242;12.442;2023-04-19T08:30:07;11.47;51.18
69503;SHT31;56704;54.242;12.442;2023-04-19T08:32:36;11.39;49.18
69503;SHT31;56704;54.242;12.442;2023-04-19T08:35:03;11.37;49.54
69503;SHT31;56704;54.242;12.442;2023-04-19T08:37:30;11.33;48.46
69503;SHT31;56704;54.242;12.442;2023-04-19T08:39:57;11.43;49.18
69503;SHT31;56704;54.242;12.442;2023-04-19T08:42:23;11.49;49.04
69503;SHT31;56704;54.242;12.442;2023-04-19T08:44:50;11.64;49.62
69503;SHT31;56704;54.242;12.442;2023-04-19T08:47:18;11.82;48.74
69503;SHT31;56704;54.242;12.442;2023-04-19T08:49:47;11.71;48.59
69503;SHT31;56704;54.242;12.442;2023-04-19T08:52:14;11.77;48.17
69503;SHT31;56704;54.242;12.442;2023-04-19T08:54:41;11.84;46.36
69503;SHT31;56704;54.242;12.442;2023-04-19T08:57:08;11.77;46.74
69503;SHT31;56704;54.242;12.442;2023-04-19T08:59:36;11.81;45.58
69503;SHT31;56704;54.242;12.442;2023-04-19T09:02:03;11.97;46.35
69503;SHT31;56704;54.242;12.442;2023-04-19T09:04:30;12.04;45.20
69503;SHT31;56704;54.242;12.442;2023-04-19T09:06:58;12.01;44.39
69503;SHT31;56704;54.242;12.442;2023-04-19T09:09:27;12.04;44.40
69503;SHT31;56704;54.242;12.442;2023-04-19T09:11:54;12.17;45.41
69503;SHT31;56704;54.242;12.442;2023-04-19T09:14:21;12.80;44.65
69503;SHT31;56704;54.242;12.442;2023-04-19T09:16:48;13.11;43.29
69503;SHT31;56704;54.242;12.442;2023-04-19T09:19:16;13.04;43.24
69503;SHT31;56704;54.242;12.442;2023-04-19T09:21:43;13.06;42.02
69503;SHT31;56704;54.242;12.442;2023-04-19T09:24:11;13.12;41.70
69503;SHT31;56704;54.242;12.442;2023-04-19T09:26:39;13.12;42.77
69503;SHT31;56704;54.242;12.442;2023-04-19T09:29:18;12.67;43.12
69503;SHT31;56704;54.242;12.442;2023-04-19T09:31:55;12.64;42.51
69503;SHT31;56704;54.242;12.442;2023-04-19T09:34:22;12.80;43.71
69503;SHT31;56704;54.242;12.442;2023-04-19T09:36:49;12.66;41.99
69503;SHT31;56704;54.242;12.442;2023-04-19T09:39:29;12.69;41.85
69503;SHT31;56704;54.242;12.442;2023-04-19T09:41:56;12.67;43.42
69503;SHT31;56704;54.242;12.442;2023-04-19T09:44:23;12.90;42.21
69503;SHT31;56704;54.242;12.442;2023-04-19T09:46:49;13.20;41.95
69503;SHT31;56704;54.242;12.442;2023-04-19T09:49:21;13.06;41.27
69503;SHT31;56704;54.242;12.442;2023-04-19T09:51:49;13.14;41.38
69503;SHT31;56704;54.242;12.442;2023-04-19T09:54:17;13.24;41.15
69503;SHT31;56704;54.242;12.442;2023-04-19T09:56:46;13.37;41.96
69503;SHT31;56704;54.242;12.442;2023-04-19T09:59:13;13.34;39.84
69503;SHT31;56704;54.242;12.442;2023-04-19T10:01:43;13.38;39.62
69503;SHT31;56704;54.242;12.442;2023-04-19T10:04:10;13.32;39.77
69503;SHT31;56704;54.242;12.442;2023-04-19T10:06:38;13.62;40.58
69503;SHT31;56704;54.242;12.442;2023-04-19T10:09:06;13.70;39.23
69503;SHT31;56704;54.242;12.442;2023-04-19T10:11:34;13.75;37.79
69503;SHT31;56704;54.242;12.442;2023-04-19T10:14:06;13.78;38.19
69503;SHT31;56704;54.242;12.442;2023-04-19T10:16:34;13.78;38.89
69503;SHT31;56704;54.242;12.442;2023-04-19T10:19:02;13.47;38.62
69503;SHT31;56704;54.242;12.442;2023-04-19T10:21:29;13.31;38.06
69503;SHT31;56704;54.242;12.442;2023-04-19T10:23:57;13.41;39.71
69503;SHT31;56704;54.242;12.442;2023-04-19T10:26:25;13.22;39.30
69503;SHT31;56704;54.242;12.442;2023-04-19T10:28:53;13.34;37.82
69503;SHT31;56704;54.242;12.442;2023-04-19T10:31:24;13.15;37.60
69503;SHT31;56704;54.242;12.442;2023-04-19T10:33:51;13.20;36.17
69503;SHT31;56704;54.242;12.442;2023-04-19T10:36:19;13.66;37.73
69503;SHT31;56704;54.242;12.442;2023-04-19T10:38:47;13.89;36.27
69503;SHT31;56704;54.242;12.442;2023-04-19T10:41:16;14.34;36.25
69503;SHT31;56704;54.242;12.442;2023-04-19T10:43:46;14.10;34.68
69503;SHT31;56704;54.242;12.442;2023-04-19T10:46:15;13.75;34.88
69503;SHT31;56704;54.242;12.442;2023-04-19T10:49:01;13.86;35.19
69503;SHT31;56704;54.242;12.442;2023-04-19T10:51:32;13.37;34.41
69503;SHT31;56704;54.242;12.442;2023-04-19T10:54:00;12.87;35.81
69503;SHT31;56704;54.242;12.442;2023-04-19T10:56:58;12.60;35.74
69503;SHT31;56704;54.242;12.442;2023-04-19T10:59:29;12.67;36.28
69503;SHT31;56704;54.242;12.442;2023-04-19T11:01:56;12.89;35.26
69503;SHT31;56704;54.242;12.442;2023-04-19T11:04:58;12.93;35.71
69503;SHT31;56704;54.242;12.442;2023-04-19T11:07:25;13.03;35.04
69503;SHT31;56704;54.242;12.442;2023-04-19T11:09:52;13.48;35.52
69503;SHT31;56704;54.242;12.442;2023-04-19T11:12:20;13.20;34.06
69503;SHT31;56704;54.242;12.442;2023-04-19T11:14:47;13.11;33.67
69503;SHT31;56704;54.242;12.442;2023-04-19T11:17:15;13.17;34.69
69503;SHT31;56704;54.242;12.442;2023-04-19T11:19:43;13.32;35.13
69503;SHT31;56704;54.242;12.442;2023-04-19T11:22:11;13.15;34.05
69503;SHT31;56704;54.242;12.442;2023-04-19T11:24:44;13.69;33.63
69503;SHT31;56704;54.242;12.442;2023-04-19T11:27:11;13.93;32.74
69503;SHT31;56704;54.242;12.442;2023-04-19T11:29:38;14.17;32.43
69503;SHT31;56704;54.242;12.442;2023-04-19T11:32:04;14.78;32.22
69503;SHT31;56704;54.242;12.442;2023-04-19T11:34:34;14.74;30.47
69503;SHT31;56704;54.242;12.442;2023-04-19T11:37:01;14.87;31.10
69503;SHT31;56704;54.242;12.442;2023-04-19T11:39:29;15.13;30.60
69503;SHT31;56704;54.242;12.442;2023-04-19T11:41:56;14.96;30.23
69503;SHT31;56704;54.242;12.442;2023-04-19T11:44:24;14.98;30.81
69503;SHT31;56704;54.242;12.442;2023-04-19T11:46:58;14.77;31.29
69503;SHT31;56704;54.242;12.442;2023-04-19T11:49:27;15.20;30.25
69503;SHT31;56704;54.242;12.442;2023-04-19T11:51:56;15.16;29.71
69503;SHT31;56704;54.242;12.442;2023-04-19T11:54:23;15.26;29.49
69503;SHT31;56704;54.242;12.442;2023-04-19T11:56:59;15.50;29.78
69503;SHT31;56704;54.242;12.442;2023-04-19T11:59:26;15.71;29.83
69503;SHT31;56704;54.242;12.442;2023-04-19T12:01:53;15.63;28.73
69503;SHT31;56704;54.242;12.442;2023-04-19T12:04:20;15.51;29.38
69503;SHT31;56704;54.242;12.442;2023-04-19T12:06:55;15.73;28.62
69503;SHT31;56704;54.242;12.442;2023-04-19T12:09:22;15.47;29.55
69503;SHT31;56704;54.242;12.442;2023-04-19T12:11:48;15.40;27.99
69503;SHT31;56704;54.242;12.442;2023-04-19T12:14:17;15.36;28.05
69503;SHT31;56704;54.242;12.442;2023-04-19T12:16:53;15.71;27.51
69503;SHT31;56704;54.242;12.442;2023-04-19T12:19:33;15.76;28.49
69503;SHT31;56704;54.242;12.442;2023-04-19T12:22:07;16.36;27.27
69503;SHT31;56704;54.242;12.442;2023-04-19T12:24:33;16.68;26.51
69503;SHT31;56704;54.242;12.442;2023-04-19T12:27:00;17.16;26.52
69503;SHT31;56704;54.242;12.442;2023-04-19T12:29:28;17.44;26.06
69503;SHT31;56704;54.242;12.442;2023-04-19T12:31:54;17.96;24.81
69503;SHT31;56704;54.242;12.442;2023-04-19T12:34:21;17.72;25.23
69503;SHT31;56704;54.242;12.442;2023-04-19T12:36:48;17.69;25.28
69503;SHT31;56704;54.242;12.442;2023-04-19T12:39:14;17.90;25.41
69503;SHT31;56704;54.242;12.442;2023-04-19T12:41:42;17.54;24.93
69503;SHT31;56704;54.242;12.442;2023-04-19T12:44:08;17.93;25.56
69503;SHT31;56704;54.242;12.442;2023-04-19T12:46:36;17.69;25.18
69503;SHT31;56704;54.242;12.442;2023-04-19T12:49:03;16.81;26.15
69503;SHT31;56704;54.242;12.442;2023-04-19T12:51:30;16.26;27.41
69503;SHT31;56704;54.242;12.442;2023-04-19T12:53:57;15.38;28.02
69503;SHT31;56704;54.242;12.442;2023-04-19T12:56:24;14.96;28.55
69503;SHT31;56704;54.242;12.442;2023-04-19T12:58:50;15.67;27.73
69503;SHT31;56704;54.242;12.442;2023-04-19T13:01:17;16.30;27.95
69503;SHT31;56704;54.242;12.442;2023-04-19T13:03:45;16.15;26.99
69503;SHT31;56704;54.242;12.442;2023-04-19T13:06:12;16.02;28.02
69503;SHT31;56704;54.242;12.442;2023-04-19T13:08:41;17.11;28.28
69503;SHT31;56704;54.242;12.442;2023-04-19T13:11:07;17.11;25.83
69503;SHT31;56704;54.242;12.442;2023-04-19T13:13:34;16.66;26.88
69503;SHT31;56704;54.242;12.442;2023-04-19T13:16:00;16.72;27.16
69503;SHT31;56704;54.242;12.442;2023-04-19T13:18:27;15.84;27.24
69503;SHT31;56704;54.242;12.442;2023-04-19T13:20:55;15.60;28.24
69503;SHT31;56704;54.242;12.442;2023-04-19T13:23:22;15.51;28.25
69503;SHT31;56704;54.242;12.442;2023-04-19T13:25:48;15.33;27.88
69503;SHT31;56704;54.242;12.442;2023-04-19T13:28:15;15.12;27.55
69503;SHT31;56704;54.242;12.442;2023-04-19T13:30:41;14.13;26.47
69503;SHT31;56704;54.242;12.442;2023-04-19T13:33:08;14.03;28.28
69503;SHT31;56704;54.242;12.442;2023-04-19T13:35:34;14.00;28.83
69503;SHT31;56704;54.242;12.442;2023-04-19T13:38:02;13.75;28.14
69503;SHT31;56704;54.242;12.442;2023-04-19T13:40:29;13.55;28.87
69503;SHT31;56704;54.242;12.442;2023-04-19T13:42:56;13.48;30.21
69503;SHT31;56704;54.242;12.442;2023-04-19T13:45:22;13.17;29.86
69503;SHT31;56704;54.242;12.442;2023-04-19T13:47:49;13.08;30.35
69503;SHT31;56704;54.242;12.442;2023-04-19T13:50:15;13.03;30.76
69503;SHT31;56704;54.242;12.442;2023-04-19T13:52:42;12.94;30.22
69503;SHT31;56704;54.242;12.442;2023-04-19T13:55:10;12.57;29.04
69503;SHT31;56704;54.242;12.442;2023-04-19T13:57:36;12.52;30.37
69503;SHT31;56704;54.242;12.442;2023-04-19T14:00:04;12.35;31.25
69503;SHT31;56704;54.242;12.442;2023-04-19T14:02:31;12.30;31.55
69503;SHT31;56704;54.242;12.442;2023-04-19T14:04:57;12.26;30.57
69503;SHT31;56704;54.242;12.442;2023-04-19T14:07:24;12.30;31.09
69503;SHT31;56704;54.242;12.442;2023-04-19T14:09:51;11.99;31.17
69503;SHT31;56704;54.242;12.442;2023-04-19T14:12:19;12.08;31.75
69503;SHT31;56704;54.242;12.442;2023-04-19T14:14:45;11.87;30.42
69503;SHT31;56704;54.242;12.442;2023-04-19T14:17:12;11.80;31.45
69503;SHT31;56704;54.242;12.442;2023-04-19T14:19:38;11.92;31.32
69503;SHT31;56704;54.242;12.442;2023-04-19T14:22:05;12.81;29.59
69503;SHT31;56704;54.242;12.442;2023-04-19T14:24:31;12.53;30.07
69503;SHT31;56704;54.242;12.442;2023-04-19T14:26:58;12.24;30.76
69503;SHT31;56704;54.242;12.442;2023-04-19T14:29:26;12.11;31.37
69503;SHT31;56704;54.242;12.442;2023-04-19T14:31:53;11.82;30.68
69503;SHT31;56704;54.242;12.442;2023-04-19T14:34:19;13.52;29.21
69503;SHT31;56704;54.242;12.442;2023-04-19T14:36:46;14.69;27.04
69503;SHT31;56704;54.242;12.442;2023-04-19T14:39:12;14.67;27.26
69503;SHT31;56704;54.242;12.442;2023-04-19T14:44:16;13.61;28.75
69503;SHT31;56704;54.242;12.442;2023-04-19T14:46:44;13.20;29.70
69503;SHT31;56704;54.242;12.442;2023-04-19T14:49:11;12.53;29.93
69503;SHT31;56704;54.242;12.442;2023-04-19T14:51:37;12.26;30.95
69503;SHT31;56704;54.242;12.442;2023-04-19T14:54:04;11.98;31.36
69503;SHT31;56704;54.242;12.442;2023-04-19T14:56:31;11.85;31.47
69503;SHT31;56704;54.242;12.442;2023-04-19T14:58:57;11.69;31.63
69503;SHT31;56704;54.242;12.442;2023-04-19T15:01:24;11.57;31.76
69503;SHT31;56704;54.242;12.442;2023-04-19T15:03:52;11.44;32.86
69503;SHT31;56704;54.242;12.442;2023-04-19T15:06:19;11.40;33.50
69503;SHT31;56704;54.242;12.442;2023-04-19T15:08:46;11.33;33.03
69503;SHT31;56704;54.242;12.442;2023-04-19T15:11:13;11.23;34.13
69503;SHT31;56704;54.242;12.442;2023-04-19T15:13:40;11.03;33.84
69503;SHT31;56704;54.242;12.442;2023-04-19T15:16:06;10.99;34.82
69503;SHT31;56704;54.242;12.442;2023-04-19T15:18:33;10.85;36.04
69503;SHT31;56704;54.242;12.442;2023-04-19T15:21:03;10.73;36.99
69503;SHT31;56704;54.242;12.442;2023-04-19T15:23:29;10.68;36.89
69503;SHT31;56704;54.242;12.442;2023-04-19T15:25:56;10.57;37.55